PWSweather.com
Personal Weather Stations
Station Observations
DW1039
Liberty & Fairfield Townships, Hamilton, OH 45011

Liberty & Fairfield TownshipsHamilton, OH 45011

Lat: 39.3933, Lon: -84.477

Elevation: 780

Station Type: Davis Vantage Pro2 (Daytime Fan Aspirated)

http://www.lfweathercenter.com/

Latest ConditionsUpdated 6:10:18 PM EST Friday, Jan 30, 2015
Currently Today's Max Today's Min Today's Average
Temperature 25.7°F-3.5°C 33.4°F0.8°C 25.3°F-3.7°C 29.2°F-1.6°C
Dew Point 16.6°F-8.6°C 29.2°F-1.6°C 14.8°F-9.6°C 21.0°F-6.1°C
Winds 1.0 mph N1.6 kmh N 14.0 mph NNW22.5 kmh NNW - 6.3 mph 10.1 kmh
Wind Gusts 5.0 mph8.0 kmh 22.0 mph35.4 kmh - -
Humidity 68% 85% 60% 71%
Pressure 30.51 in1033.2 mb 30.53 in1033.9 mb 30.23 in1023.7 mb -
Hour Temp Dew Point Humidity Winds Wind Gusts Pressure Precip Precip Rate Daily Precip Total
06:10 PM 25.7°F-3.5°C 16.6°F-8.6°C 68% 1.0 mph N1.6 kmh N 5.0 mph8.0 kmh 30.51 in1033.2 mb 0.00 in0.0 mm 0.00 in/hr0.0 mm/hr 0.00 in0.0 mm
06:00 PM 25.9°F-3.4°C 16.5°F-8.6°C 67% 1.0 mph N1.6 kmh N 6.0 mph9.7 kmh 30.51 in1033.2 mb 0.00 in0.0 mm 0.00 in/hr0.0 mm/hr 0.00 in0.0 mm
05:50 PM 26.2°F-3.2°C 16.4°F-8.7°C 66% 6.0 mph N9.7 kmh N 7.0 mph11.3 kmh 30.51 in1033.2 mb 0.00 in0.0 mm 0.00 in/hr0.0 mm/hr 0.00 in0.0 mm
05:40 PM 26.7°F-2.9°C 16.9°F-8.4°C 66% 5.0 mph NW8.0 kmh NW 10.0 mph16.1 kmh 30.51 in1033.2 mb 0.00 in0.0 mm 0.00 in/hr0.0 mm/hr 0.00 in0.0 mm
05:30 PM 26.9°F-2.8°C 17.1°F-8.3°C 66% 1.0 mph NNW1.6 kmh NNW 4.0 mph6.4 kmh 30.51 in1033.2 mb 0.00 in0.0 mm 0.00 in/hr0.0 mm/hr 0.00 in0.0 mm
05:20 PM 27.1°F-2.7°C 17.3°F-8.2°C 66% 6.0 mph NNW9.7 kmh NNW 10.0 mph16.1 kmh 30.52 in1033.5 mb 0.00 in0.0 mm 0.00 in/hr0.0 mm/hr 0.00 in0.0 mm
05:10 PM 27.3°F-2.6°C 17.1°F-8.3°C 65% 1.0 mph NNW1.6 kmh NNW 4.0 mph6.4 kmh 30.51 in1033.2 mb 0.00 in0.0 mm 0.00 in/hr0.0 mm/hr 0.00 in0.0 mm
05:00 PM 27.7°F-2.4°C 17.1°F-8.3°C 64% 6.0 mph NNW9.7 kmh NNW 10.0 mph16.1 kmh 30.51 in1033.2 mb 0.00 in0.0 mm 0.00 in/hr0.0 mm/hr 0.00 in0.0 mm
04:50 PM 28.1°F-2.2°C 17.5°F-8.1°C 64% 7.0 mph NE11.3 kmh NE 10.0 mph16.1 kmh 30.51 in1033.2 mb 0.00 in0.0 mm 0.00 in/hr0.0 mm/hr 0.00 in0.0 mm
04:40 PM 28.2°F-2.1°C 17.2°F-8.2°C 63% 3.0 mph N4.8 kmh N 8.0 mph12.9 kmh 30.51 in1033.2 mb 0.00 in0.0 mm 0.00 in/hr0.0 mm/hr 0.00 in0.0 mm
04:30 PM 28.0°F-2.2°C 17.1°F-8.3°C 63% 4.0 mph NW6.4 kmh NW 10.0 mph16.1 kmh 30.51 in1033.2 mb 0.00 in0.0 mm 0.00 in/hr0.0 mm/hr 0.00 in0.0 mm
04:20 PM 28.3°F-2.1°C 17.7°F-7.9°C 64% 9.0 mph N14.5 kmh N 10.0 mph16.1 kmh 30.51 in1033.2 mb 0.00 in0.0 mm 0.00 in/hr0.0 mm/hr 0.00 in0.0 mm
04:10 PM 27.9°F-2.3°C 16.2°F-8.8°C 61% 5.0 mph NNW8.0 kmh NNW 11.0 mph17.7 kmh 30.51 in1033.2 mb 0.00 in0.0 mm 0.00 in/hr0.0 mm/hr 0.00 in0.0 mm
04:00 PM 29.5°F-1.4°C 17.7°F-7.9°C 61% 7.0 mph N11.3 kmh N 13.0 mph20.9 kmh 30.51 in1033.2 mb 0.00 in0.0 mm 0.00 in/hr0.0 mm/hr 0.00 in0.0 mm
03:50 PM 29.3°F-1.5°C 17.2°F-8.2°C 60% 6.0 mph NW9.7 kmh NW 8.0 mph12.9 kmh 30.51 in1033.2 mb 0.00 in0.0 mm 0.00 in/hr0.0 mm/hr 0.00 in0.0 mm
03:40 PM 29.7°F-1.3°C 18.3°F-7.6°C 62% 4.0 mph NNW6.4 kmh NNW 9.0 mph14.5 kmh 30.50 in1032.8 mb 0.00 in0.0 mm 0.00 in/hr0.0 mm/hr 0.00 in0.0 mm
03:30 PM 30.0°F-1.1°C 18.6°F-7.4°C 62% 3.0 mph NNW4.8 kmh NNW 14.0 mph22.5 kmh 30.51 in1033.2 mb 0.00 in0.0 mm 0.00 in/hr0.0 mm/hr 0.00 in0.0 mm
03:20 PM 29.5°F-1.4°C 18.5°F-7.5°C 63% 6.0 mph W9.7 kmh W 8.0 mph12.9 kmh 30.50 in1032.8 mb 0.00 in0.0 mm 0.00 in/hr0.0 mm/hr 0.00 in0.0 mm
03:10 PM 27.6°F-2.4°C 17.7°F-7.9°C 66% Calm Calm 10.0 mph16.1 kmh 30.50 in1032.8 mb 0.00 in0.0 mm 0.00 in/hr0.0 mm/hr 0.00 in0.0 mm
03:00 PM 27.1°F-2.7°C 16.9°F-8.4°C 65% 2.0 mph N3.2 kmh N 10.0 mph16.1 kmh 30.50 in1032.8 mb 0.00 in0.0 mm 0.00 in/hr0.0 mm/hr 0.00 in0.0 mm
02:50 PM 27.3°F-2.6°C 16.8°F-8.4°C 64% 5.0 mph NNW8.0 kmh NNW 10.0 mph16.1 kmh 30.50 in1032.8 mb 0.00 in0.0 mm 0.00 in/hr0.0 mm/hr 0.00 in0.0 mm
02:40 PM 27.7°F-2.4°C 16.8°F-8.4°C 63% 10.0 mph N16.1 kmh N 12.0 mph19.3 kmh 30.50 in1032.8 mb 0.00 in0.0 mm 0.00 in/hr0.0 mm/hr 0.00 in0.0 mm
02:30 PM 28.1°F-2.2°C 17.1°F-8.3°C 63% 13.0 mph N20.9 kmh N 13.0 mph20.9 kmh 30.50 in1032.8 mb 0.00 in0.0 mm 0.00 in/hr0.0 mm/hr 0.00 in0.0 mm
02:20 PM 27.7°F-2.4°C 16.4°F-8.7°C 62% 5.0 mph NNW8.0 kmh NNW 9.0 mph14.5 kmh 30.51 in1033.2 mb 0.00 in0.0 mm 0.00 in/hr0.0 mm/hr 0.00 in0.0 mm
02:10 PM 29.2°F-1.6°C 17.1°F-8.3°C 60% 8.0 mph N12.9 kmh N 10.0 mph16.1 kmh 30.51 in1033.2 mb 0.00 in0.0 mm 0.00 in/hr0.0 mm/hr 0.00 in0.0 mm
02:00 PM 28.5°F-1.9°C 17.2°F-8.2°C 62% 3.0 mph NW4.8 kmh NW 11.0 mph17.7 kmh 30.51 in1033.2 mb 0.00 in0.0 mm 0.00 in/hr0.0 mm/hr 0.00 in0.0 mm
01:50 PM 27.4°F-2.6°C 16.1°F-8.8°C 62% 10.0 mph NW16.1 kmh NW 14.0 mph22.5 kmh 30.51 in1033.2 mb 0.00 in0.0 mm 0.00 in/hr0.0 mm/hr 0.00 in0.0 mm
01:40 PM 28.2°F-2.1°C 17.6°F-8.0°C 64% 2.0 mph NW3.2 kmh NW 10.0 mph16.1 kmh 30.51 in1033.2 mb 0.00 in0.0 mm 0.00 in/hr0.0 mm/hr 0.00 in0.0 mm
01:30 PM 27.3°F-2.6°C 16.4°F-8.7°C 63% 10.0 mph NW16.1 kmh NW 16.0 mph25.7 kmh 30.51 in1033.2 mb 0.00 in0.0 mm 0.00 in/hr0.0 mm/hr 0.00 in0.0 mm
01:20 PM 27.6°F-2.4°C 17.0°F-8.3°C 64% 9.0 mph NW14.5 kmh NW 15.0 mph24.1 kmh 30.51 in1033.2 mb 0.00 in0.0 mm 0.00 in/hr0.0 mm/hr 0.00 in0.0 mm
01:10 PM 26.9°F-2.8°C 15.6°F-9.1°C 62% 3.0 mph N4.8 kmh N 16.0 mph25.7 kmh 30.51 in1033.2 mb 0.00 in0.0 mm 0.00 in/hr0.0 mm/hr 0.00 in0.0 mm
01:00 PM 26.9°F-2.8°C 16.0°F-8.9°C 63% 9.0 mph NW14.5 kmh NW 16.0 mph25.7 kmh 30.51 in1033.2 mb 0.00 in0.0 mm 0.00 in/hr0.0 mm/hr 0.00 in0.0 mm
12:50 PM 27.5°F-2.5°C 16.2°F-8.8°C 62% 10.0 mph N16.1 kmh N 16.0 mph25.7 kmh 30.51 in1033.2 mb 0.00 in0.0 mm 0.00 in/hr0.0 mm/hr 0.00 in0.0 mm
12:40 PM 27.3°F-2.6°C 16.4°F-8.7°C 63% 12.0 mph NW19.3 kmh NW 15.0 mph24.1 kmh 30.51 in1033.2 mb 0.00 in0.0 mm 0.00 in/hr0.0 mm/hr 0.00 in0.0 mm
12:30 PM 27.2°F-2.7°C 16.7°F-8.5°C 64% 14.0 mph N22.5 kmh N 17.0 mph27.4 kmh 30.51 in1033.2 mb 0.00 in0.0 mm 0.00 in/hr0.0 mm/hr 0.00 in0.0 mm
12:20 PM 27.2°F-2.7°C 15.9°F-8.9°C 62% 6.0 mph NNW9.7 kmh NNW 15.0 mph24.1 kmh 30.52 in1033.5 mb 0.00 in0.0 mm 0.00 in/hr0.0 mm/hr 0.00 in0.0 mm
12:10 PM 27.0°F-2.8°C 15.7°F-9.1°C 62% 6.0 mph NW9.7 kmh NW 16.0 mph25.7 kmh 30.52 in1033.5 mb 0.00 in0.0 mm 0.00 in/hr0.0 mm/hr 0.00 in0.0 mm
12:00 PM 26.6°F-3.0°C 15.7°F-9.1°C 63% 11.0 mph NNW17.7 kmh NNW 14.0 mph22.5 kmh 30.52 in1033.5 mb 0.00 in0.0 mm 0.00 in/hr0.0 mm/hr 0.00 in0.0 mm
11:50 AM 26.1°F-3.3°C 15.2°F-9.3°C 63% 9.0 mph NW14.5 kmh NW 16.0 mph25.7 kmh 30.53 in1033.9 mb 0.00 in0.0 mm 0.00 in/hr0.0 mm/hr 0.00 in0.0 mm
11:40 AM 25.8°F-3.4°C 15.0°F-9.4°C 63% 8.0 mph NW12.9 kmh NW 18.0 mph29.0 kmh 30.53 in1033.9 mb 0.00 in0.0 mm 0.00 in/hr0.0 mm/hr 0.00 in0.0 mm
11:30 AM 25.9°F-3.4°C 15.1°F-9.4°C 63% 14.0 mph NW22.5 kmh NW 18.0 mph29.0 kmh 30.52 in1033.5 mb 0.00 in0.0 mm 0.00 in/hr0.0 mm/hr 0.00 in0.0 mm
11:20 AM 25.3°F-3.7°C 14.8°F-9.6°C 64% 14.0 mph N22.5 kmh N 19.0 mph30.6 kmh 30.52 in1033.5 mb 0.00 in0.0 mm 0.00 in/hr0.0 mm/hr 0.00 in0.0 mm
11:10 AM 25.7°F-3.5°C 15.6°F-9.1°C 65% 7.0 mph NNW11.3 kmh NNW 13.0 mph20.9 kmh 30.52 in1033.5 mb 0.00 in0.0 mm 0.00 in/hr0.0 mm/hr 0.00 in0.0 mm
11:00 AM 25.8°F-3.4°C 15.3°F-9.3°C 64% 9.0 mph NNW14.5 kmh NNW 17.0 mph27.4 kmh 30.52 in1033.5 mb 0.00 in0.0 mm 0.00 in/hr0.0 mm/hr 0.00 in0.0 mm
10:50 AM 26.1°F-3.3°C 16.0°F-8.9°C 65% 12.0 mph WNW19.3 kmh WNW 20.0 mph32.2 kmh 30.51 in1033.2 mb 0.00 in0.0 mm 0.00 in/hr0.0 mm/hr 0.00 in0.0 mm
10:40 AM 25.9°F-3.4°C 15.8°F-9.0°C 65% 11.0 mph N17.7 kmh N 16.0 mph25.7 kmh 30.50 in1032.8 mb 0.00 in0.0 mm 0.00 in/hr0.0 mm/hr 0.00 in0.0 mm
10:30 AM 25.7°F-3.5°C 15.9°F-8.9°C 66% 3.0 mph NW4.8 kmh NW 22.0 mph35.4 kmh 30.50 in1032.8 mb 0.00 in0.0 mm 0.00 in/hr0.0 mm/hr 0.00 in0.0 mm
10:20 AM 25.6°F-3.6°C 15.5°F-9.2°C 65% 6.0 mph NW9.7 kmh NW 21.0 mph33.8 kmh 30.50 in1032.8 mb 0.00 in0.0 mm 0.00 in/hr0.0 mm/hr 0.00 in0.0 mm
10:10 AM 26.0°F-3.3°C 16.9°F-8.4°C 68% 12.0 mph N19.3 kmh N 17.0 mph27.4 kmh 30.49 in1032.5 mb 0.00 in0.0 mm 0.00 in/hr0.0 mm/hr 0.00 in0.0 mm
10:00 AM 25.8°F-3.4°C 17.4°F-8.1°C 70% 10.0 mph W16.1 kmh W 15.0 mph24.1 kmh 30.49 in1032.5 mb 0.00 in0.0 mm 0.00 in/hr0.0 mm/hr 0.00 in0.0 mm
09:50 AM 25.5°F-3.6°C 17.8°F-7.9°C 72% 7.0 mph N11.3 kmh N 13.0 mph20.9 kmh 30.48 in1032.2 mb 0.00 in0.0 mm 0.00 in/hr0.0 mm/hr 0.00 in0.0 mm
09:40 AM 25.4°F-3.7°C 18.0°F-7.8°C 73% 9.0 mph NNW14.5 kmh NNW 18.0 mph29.0 kmh 30.48 in1032.2 mb 0.00 in0.0 mm 0.00 in/hr0.0 mm/hr 0.00 in0.0 mm
09:30 AM 25.3°F-3.7°C 18.2°F-7.7°C 74% 11.0 mph NNW17.7 kmh NNW 16.0 mph25.7 kmh 30.47 in1031.8 mb 0.00 in0.0 mm 0.00 in/hr0.0 mm/hr 0.00 in0.0 mm
09:20 AM 26.1°F-3.3°C 17.7°F-7.9°C 70% 12.0 mph N19.3 kmh N 18.0 mph29.0 kmh 30.47 in1031.8 mb 0.00 in0.0 mm 0.00 in/hr0.0 mm/hr 0.00 in0.0 mm
09:10 AM 26.6°F-3.0°C 15.7°F-9.1°C 63% 13.0 mph NNW20.9 kmh NNW 22.0 mph35.4 kmh 30.45 in1031.2 mb 0.00 in0.0 mm 0.00 in/hr0.0 mm/hr 0.00 in0.0 mm
09:00 AM 26.7°F-2.9°C 15.8°F-9.0°C 63% 8.0 mph NW12.9 kmh NW 18.0 mph29.0 kmh 30.45 in1031.2 mb 0.00 in0.0 mm 0.00 in/hr0.0 mm/hr 0.00 in0.0 mm
08:50 AM 26.7°F-2.9°C 15.8°F-9.0°C 63% 7.0 mph NW11.3 kmh NW 18.0 mph29.0 kmh 30.44 in1030.8 mb 0.00 in0.0 mm 0.00 in/hr0.0 mm/hr 0.00 in0.0 mm
08:40 AM 26.9°F-2.8°C 17.1°F-8.3°C 66% 7.0 mph NNW11.3 kmh NNW 16.0 mph25.7 kmh 30.44 in1030.8 mb 0.00 in0.0 mm 0.00 in/hr0.0 mm/hr 0.00 in0.0 mm
08:30 AM 27.0°F-2.8°C 17.9°F-7.8°C 68% 7.0 mph NW11.3 kmh NW 16.0 mph25.7 kmh 30.44 in1030.8 mb 0.00 in0.0 mm 0.00 in/hr0.0 mm/hr 0.00 in0.0 mm
08:20 AM 26.9°F-2.8°C 19.1°F-7.2°C 72% 5.0 mph NW8.0 kmh NW 9.0 mph14.5 kmh 30.43 in1030.5 mb 0.00 in0.0 mm 0.00 in/hr0.0 mm/hr 0.00 in0.0 mm
08:10 AM 26.6°F-3.0°C 18.8°F-7.3°C 72% 6.0 mph NW9.7 kmh NW 11.0 mph17.7 kmh 30.43 in1030.5 mb 0.00 in0.0 mm 0.00 in/hr0.0 mm/hr 0.00 in0.0 mm
08:00 AM 26.5°F-3.1°C 18.7°F-7.4°C 72% 2.0 mph N3.2 kmh N 10.0 mph16.1 kmh 30.42 in1030.1 mb 0.00 in0.0 mm 0.00 in/hr0.0 mm/hr 0.00 in0.0 mm
07:50 AM 26.7°F-2.9°C 18.9°F-7.3°C 72% 4.0 mph NW6.4 kmh NW 12.0 mph19.3 kmh 30.42 in1030.1 mb 0.00 in0.0 mm 0.00 in/hr0.0 mm/hr 0.00 in0.0 mm
07:40 AM 27.2°F-2.7°C 19.1°F-7.2°C 71% 5.0 mph NNW8.0 kmh NNW 16.0 mph25.7 kmh 30.41 in1029.8 mb 0.00 in0.0 mm 0.00 in/hr0.0 mm/hr 0.00 in0.0 mm
07:30 AM 27.7°F-2.4°C 19.5°F-6.9°C 71% 5.0 mph NE8.0 kmh NE 15.0 mph24.1 kmh 30.40 in1029.5 mb 0.00 in0.0 mm 0.00 in/hr0.0 mm/hr 0.00 in0.0 mm
07:20 AM 28.2°F-2.1°C 20.7°F-6.3°C 73% 6.0 mph NW9.7 kmh NW 15.0 mph24.1 kmh 30.39 in1029.1 mb 0.00 in0.0 mm 0.00 in/hr0.0 mm/hr 0.00 in0.0 mm
07:10 AM 28.7°F-1.8°C 21.2°F-6.0°C 73% 14.0 mph NNW22.5 kmh NNW 16.0 mph25.7 kmh 30.39 in1029.1 mb 0.00 in0.0 mm 0.00 in/hr0.0 mm/hr 0.00 in0.0 mm
07:00 AM 29.1°F-1.6°C 21.5°F-5.8°C 73% 13.0 mph NW20.9 kmh NW 19.0 mph30.6 kmh 30.38 in1028.8 mb 0.00 in0.0 mm 0.00 in/hr0.0 mm/hr 0.00 in0.0 mm
06:50 AM 29.2°F-1.6°C 21.3°F-5.9°C 72% 7.0 mph NNW11.3 kmh NNW 20.0 mph32.2 kmh 30.37 in1028.4 mb 0.00 in0.0 mm 0.00 in/hr0.0 mm/hr 0.00 in0.0 mm
06:40 AM 29.5°F-1.4°C 21.3°F-5.9°C 71% 2.0 mph NW3.2 kmh NW 15.0 mph24.1 kmh 30.37 in1028.4 mb 0.00 in0.0 mm 0.00 in/hr0.0 mm/hr 0.00 in0.0 mm
06:30 AM 29.6°F-1.3°C 21.4°F-5.9°C 71% 11.0 mph W17.7 kmh W 16.0 mph25.7 kmh 30.36 in1028.1 mb 0.00 in0.0 mm 0.00 in/hr0.0 mm/hr 0.00 in0.0 mm
06:20 AM 29.8°F-1.2°C 21.9°F-5.6°C 72% 6.0 mph NW9.7 kmh NW 15.0 mph24.1 kmh 30.34 in1027.4 mb 0.00 in0.0 mm 0.00 in/hr0.0 mm/hr 0.00 in0.0 mm
06:10 AM 29.9°F-1.2°C 23.0°F-5.0°C 75% 11.0 mph NNW17.7 kmh NNW 17.0 mph27.4 kmh 30.34 in1027.4 mb 0.00 in0.0 mm 0.00 in/hr0.0 mm/hr 0.00 in0.0 mm
06:00 AM 29.8°F-1.2°C 24.1°F-4.4°C 79% 8.0 mph NW12.9 kmh NW 17.0 mph27.4 kmh 30.34 in1027.4 mb 0.00 in0.0 mm 0.00 in/hr0.0 mm/hr 0.00 in0.0 mm
05:50 AM 29.9°F-1.2°C 24.8°F-4.0°C 81% 4.0 mph N6.4 kmh N 14.0 mph22.5 kmh 30.33 in1027.1 mb 0.00 in0.0 mm 0.00 in/hr0.0 mm/hr 0.00 in0.0 mm
05:40 AM 30.2°F-1.0°C 25.1°F-3.8°C 81% 11.0 mph N17.7 kmh N 16.0 mph25.7 kmh 30.33 in1027.1 mb 0.00 in0.0 mm 0.00 in/hr0.0 mm/hr 0.00 in0.0 mm
05:30 AM 31.2°F-0.4°C 26.4°F-3.1°C 82% 11.0 mph N17.7 kmh N 14.0 mph22.5 kmh 30.32 in1026.8 mb 0.00 in0.0 mm 0.00 in/hr0.0 mm/hr 0.00 in0.0 mm
05:20 AM 32.0°F0.0°C 27.1°F-2.7°C 82% 2.0 mph NW3.2 kmh NW 9.0 mph14.5 kmh 30.31 in1026.4 mb 0.00 in0.0 mm 0.00 in/hr0.0 mm/hr 0.00 in0.0 mm
05:10 AM 32.8°F0.4°C 27.0°F-2.8°C 79% 5.0 mph NW8.0 kmh NW 13.0 mph20.9 kmh 30.30 in1026.1 mb 0.00 in0.0 mm 0.00 in/hr0.0 mm/hr 0.00 in0.0 mm
05:00 AM 33.1°F0.6°C 27.0°F-2.8°C 78% 4.0 mph WNW6.4 kmh WNW 12.0 mph19.3 kmh 30.30 in1026.1 mb 0.00 in0.0 mm 0.00 in/hr0.0 mm/hr 0.00 in0.0 mm
04:50 AM 33.1°F0.6°C 27.0°F-2.8°C 78% 11.0 mph NW17.7 kmh NW 11.0 mph17.7 kmh 30.29 in1025.7 mb 0.00 in0.0 mm 0.00 in/hr0.0 mm/hr 0.00 in0.0 mm
04:40 AM 33.2°F0.7°C 27.1°F-2.7°C 78% 3.0 mph WNW4.8 kmh WNW 13.0 mph20.9 kmh 30.28 in1025.4 mb 0.00 in0.0 mm 0.00 in/hr0.0 mm/hr 0.00 in0.0 mm
04:30 AM 33.2°F0.7°C 27.1°F-2.7°C 78% 4.0 mph NW6.4 kmh NW 14.0 mph22.5 kmh 30.28 in1025.4 mb 0.00 in0.0 mm 0.00 in/hr0.0 mm/hr 0.00 in0.0 mm
04:20 AM 33.3°F0.7°C 27.2°F-2.7°C 78% 5.0 mph WNW8.0 kmh WNW 11.0 mph17.7 kmh 30.28 in1025.4 mb 0.00 in0.0 mm 0.00 in/hr0.0 mm/hr 0.00 in0.0 mm
04:10 AM 33.3°F0.7°C 27.2°F-2.7°C 78% 6.0 mph NW9.7 kmh NW 12.0 mph19.3 kmh 30.27 in1025.1 mb 0.00 in0.0 mm 0.00 in/hr0.0 mm/hr 0.00 in0.0 mm
04:00 AM 33.3°F0.7°C 27.5°F-2.5°C 79% 2.0 mph WSW3.2 kmh WSW 14.0 mph22.5 kmh 30.27 in1025.1 mb 0.00 in0.0 mm 0.00 in/hr0.0 mm/hr 0.00 in0.0 mm
03:50 AM 33.2°F0.7°C 27.7°F-2.4°C 80% 2.0 mph W3.2 kmh W 12.0 mph19.3 kmh 30.27 in1025.1 mb 0.00 in0.0 mm 0.00 in/hr0.0 mm/hr 0.00 in0.0 mm
03:40 AM 33.2°F0.7°C 28.0°F-2.2°C 81% 1.0 mph WNW1.6 kmh WNW 15.0 mph24.1 kmh 30.27 in1025.1 mb 0.00 in0.0 mm 0.00 in/hr0.0 mm/hr 0.00 in0.0 mm
03:30 AM 33.2°F0.7°C 28.3°F-2.1°C 82% 9.0 mph W14.5 kmh W 12.0 mph19.3 kmh 30.27 in1025.1 mb 0.00 in0.0 mm 0.00 in/hr0.0 mm/hr 0.00 in0.0 mm
03:20 AM 33.2°F0.7°C 28.3°F-2.1°C 82% 5.0 mph WNW8.0 kmh WNW 11.0 mph17.7 kmh 30.27 in1025.1 mb 0.00 in0.0 mm 0.00 in/hr0.0 mm/hr 0.00 in0.0 mm
03:10 AM 33.2°F0.7°C 28.6°F-1.9°C 83% 3.0 mph WNW4.8 kmh WNW 10.0 mph16.1 kmh 30.26 in1024.7 mb 0.00 in0.0 mm 0.00 in/hr0.0 mm/hr 0.00 in0.0 mm
03:00 AM 33.3°F0.7°C 28.7°F-1.8°C 83% 3.0 mph W4.8 kmh W 11.0 mph17.7 kmh 30.26 in1024.7 mb 0.00 in0.0 mm 0.00 in/hr0.0 mm/hr 0.00 in0.0 mm
02:50 AM 33.3°F0.7°C 28.7°F-1.8°C 83% 8.0 mph WSW12.9 kmh WSW 10.0 mph16.1 kmh 30.26 in1024.7 mb 0.00 in0.0 mm 0.00 in/hr0.0 mm/hr 0.00 in0.0 mm
02:40 AM 33.3°F0.7°C 28.7°F-1.8°C 83% 4.0 mph W6.4 kmh W 11.0 mph17.7 kmh 30.26 in1024.7 mb 0.00 in0.0 mm 0.00 in/hr0.0 mm/hr 0.00 in0.0 mm
02:30 AM 33.3°F0.7°C 28.7°F-1.8°C 83% 6.0 mph WNW9.7 kmh WNW 14.0 mph22.5 kmh 30.26 in1024.7 mb 0.00 in0.0 mm 0.00 in/hr0.0 mm/hr 0.00 in0.0 mm
02:20 AM 33.4°F0.8°C 28.8°F-1.8°C 83% 4.0 mph W6.4 kmh W 11.0 mph17.7 kmh 30.25 in1024.4 mb 0.00 in0.0 mm 0.00 in/hr0.0 mm/hr 0.00 in0.0 mm
02:10 AM 33.4°F0.8°C 28.8°F-1.8°C 83% 6.0 mph NW9.7 kmh NW 9.0 mph14.5 kmh 30.25 in1024.4 mb 0.00 in0.0 mm 0.00 in/hr0.0 mm/hr 0.00 in0.0 mm
02:00 AM 33.3°F0.7°C 28.7°F-1.8°C 83% 4.0 mph W6.4 kmh W 10.0 mph16.1 kmh 30.25 in1024.4 mb 0.00 in0.0 mm 0.00 in/hr0.0 mm/hr 0.00 in0.0 mm
01:50 AM 33.4°F0.8°C 28.8°F-1.8°C 83% 3.0 mph W4.8 kmh W 9.0 mph14.5 kmh 30.25 in1024.4 mb 0.00 in0.0 mm 0.00 in/hr0.0 mm/hr 0.00 in0.0 mm
01:40 AM 33.4°F0.8°C 28.8°F-1.8°C 83% 4.0 mph WSW6.4 kmh WSW 9.0 mph14.5 kmh 30.25 in1024.4 mb 0.00 in0.0 mm 0.00 in/hr0.0 mm/hr 0.00 in0.0 mm
01:30 AM 33.4°F0.8°C 28.8°F-1.8°C 83% Calm Calm 11.0 mph17.7 kmh 30.24 in1024.0 mb 0.00 in0.0 mm 0.00 in/hr0.0 mm/hr 0.00 in0.0 mm
01:20 AM 33.3°F0.7°C 28.7°F-1.8°C 83% 5.0 mph W8.0 kmh W 13.0 mph20.9 kmh 30.24 in1024.0 mb 0.00 in0.0 mm 0.00 in/hr0.0 mm/hr 0.00 in0.0 mm
01:10 AM 33.2°F0.7°C 28.9°F-1.7°C 84% 1.0 mph NW1.6 kmh NW 7.0 mph11.3 kmh 30.25 in1024.4 mb 0.00 in0.0 mm 0.00 in/hr0.0 mm/hr 0.00 in0.0 mm
01:00 AM 33.3°F0.7°C 29.0°F-1.7°C 84% Calm Calm 5.0 mph8.0 kmh 30.25 in1024.4 mb 0.00 in0.0 mm 0.00 in/hr0.0 mm/hr 0.00 in0.0 mm
12:50 AM 33.3°F0.7°C 29.0°F-1.7°C 84% 5.0 mph W8.0 kmh W 11.0 mph17.7 kmh 30.24 in1024.0 mb 0.00 in0.0 mm 0.00 in/hr0.0 mm/hr 0.00 in0.0 mm
12:40 AM 33.2°F0.7°C 29.2°F-1.6°C 85% 8.0 mph NW12.9 kmh NW 12.0 mph19.3 kmh 30.24 in1024.0 mb 0.00 in0.0 mm 0.00 in/hr0.0 mm/hr 0.00 in0.0 mm
12:30 AM 33.2°F0.7°C 29.2°F-1.6°C 85% 3.0 mph NW4.8 kmh NW 6.0 mph9.7 kmh 30.24 in1024.0 mb 0.00 in0.0 mm 0.00 in/hr0.0 mm/hr 0.00 in0.0 mm
12:20 AM 33.2°F0.7°C 29.2°F-1.6°C 85% Calm Calm 5.0 mph8.0 kmh 30.24 in1024.0 mb 0.00 in0.0 mm 0.00 in/hr0.0 mm/hr 0.00 in0.0 mm
12:10 AM 33.2°F0.7°C 29.2°F-1.6°C 85% 3.0 mph WNW4.8 kmh WNW 12.0 mph19.3 kmh 30.24 in1024.0 mb 0.00 in0.0 mm 0.00 in/hr0.0 mm/hr 0.00 in0.0 mm
12:00 AM 33.2°F0.7°C 29.2°F-1.6°C 85% 6.0 mph W9.7 kmh W 13.0 mph20.9 kmh 30.23 in1023.7 mb 0.00 in0.0 mm 0.00 in/hr0.0 mm/hr 0.00 in0.0 mm